sensor_id;sensor_type;location;lat;lon;timestamp;P1;durP1;ratioP1;P2;durP2;ratioP2
11422;SDS011;5768;51.476;7.210;2023-08-08T00:04:20;3.78;;;2.25;;
11422;SDS011;5768;51.476;7.210;2023-08-08T00:09:24;5.75;;;2.20;;
11422;SDS011;5768;51.476;7.210;2023-08-08T00:14:26;3.25;;;2.03;;
11422;SDS011;5768;51.476;7.210;2023-08-08T00:19:28;2.28;;;1.95;;
11422;SDS011;5768;51.476;7.210;2023-08-08T00:24:32;2.25;;;1.98;;
11422;SDS011;5768;51.476;7.210;2023-08-08T00:29:35;4.18;;;2.30;;
11422;SDS011;5768;51.476;7.210;2023-08-08T00:34:37;3.00;;;1.85;;
11422;SDS011;5768;51.476;7.210;2023-08-08T00:39:41;4.72;;;2.45;;
11422;SDS011;5768;51.476;7.210;2023-08-08T00:44:46;5.38;;;2.33;;
11422;SDS011;5768;51.476;7.210;2023-08-08T00:49:48;3.22;;;2.33;;
11422;SDS011;5768;51.476;7.210;2023-08-08T00:54:52;2.17;;;1.88;;
11422;SDS011;5768;51.476;7.210;2023-08-08T00:59:54;3.13;;;2.00;;
11422;SDS011;5768;51.476;7.210;2023-08-08T01:04:59;2.42;;;1.90;;
11422;SDS011;5768;51.476;7.210;2023-08-08T01:10:05;2.85;;;2.10;;
11422;SDS011;5768;51.476;7.210;2023-08-08T01:15:11;2.10;;;1.90;;
11422;SDS011;5768;51.476;7.210;2023-08-08T01:20:16;4.05;;;1.70;;
11422;SDS011;5768;51.476;7.210;2023-08-08T01:25:24;3.20;;;2.10;;
11422;SDS011;5768;51.476;7.210;2023-08-08T01:30:27;3.15;;;2.25;;
11422;SDS011;5768;51.476;7.210;2023-08-08T01:35:30;3.53;;;2.30;;
11422;SDS011;5768;51.476;7.210;2023-08-08T01:40:40;4.25;;;2.20;;
11422;SDS011;5768;51.476;7.210;2023-08-08T01:45:45;2.88;;;2.10;;
11422;SDS011;5768;51.476;7.210;2023-08-08T01:50:49;8.52;;;2.55;;
11422;SDS011;5768;51.476;7.210;2023-08-08T01:55:52;3.13;;;2.13;;
11422;SDS011;5768;51.476;7.210;2023-08-08T02:00:55;2.95;;;2.25;;
11422;SDS011;5768;51.476;7.210;2023-08-08T02:05:57;4.10;;;2.40;;
11422;SDS011;5768;51.476;7.210;2023-08-08T02:11:01;2.72;;;2.53;;
11422;SDS011;5768;51.476;7.210;2023-08-08T02:16:03;3.28;;;2.55;;
11422;SDS011;5768;51.476;7.210;2023-08-08T02:21:06;3.00;;;1.95;;
11422;SDS011;5768;51.476;7.210;2023-08-08T02:26:10;4.63;;;2.17;;
11422;SDS011;5768;51.476;7.210;2023-08-08T02:31:12;2.60;;;2.20;;
11422;SDS011;5768;51.476;7.210;2023-08-08T02:36:20;3.05;;;1.90;;
11422;SDS011;5768;51.476;7.210;2023-08-08T02:41:24;2.97;;;1.95;;
11422;SDS011;5768;51.476;7.210;2023-08-08T02:46:26;3.28;;;2.40;;
11422;SDS011;5768;51.476;7.210;2023-08-08T02:51:28;3.85;;;2.15;;
11422;SDS011;5768;51.476;7.210;2023-08-08T02:56:32;5.40;;;2.30;;
11422;SDS011;5768;51.476;7.210;2023-08-08T03:01:34;2.63;;;2.30;;
11422;SDS011;5768;51.476;7.210;2023-08-08T03:06:39;2.95;;;1.80;;
11422;SDS011;5768;51.476;7.210;2023-08-08T03:11:43;6.80;;;2.20;;
11422;SDS011;5768;51.476;7.210;2023-08-08T03:16:45;5.13;;;2.40;;
11422;SDS011;5768;51.476;7.210;2023-08-08T03:21:47;2.10;;;1.90;;
11422;SDS011;5768;51.476;7.210;2023-08-08T03:26:51;3.90;;;2.38;;
11422;SDS011;5768;51.476;7.210;2023-08-08T03:31:53;3.95;;;2.35;;
11422;SDS011;5768;51.476;7.210;2023-08-08T03:36:55;3.67;;;2.60;;
11422;SDS011;5768;51.476;7.210;2023-08-08T03:41:59;6.55;;;2.60;;
11422;SDS011;5768;51.476;7.210;2023-08-08T03:47:01;6.57;;;3.00;;
11422;SDS011;5768;51.476;7.210;2023-08-08T03:52:04;6.55;;;2.97;;
11422;SDS011;5768;51.476;7.210;2023-08-08T03:57:08;4.63;;;3.50;;
11422;SDS011;5768;51.476;7.210;2023-08-08T04:02:10;5.45;;;3.38;;
11422;SDS011;5768;51.476;7.210;2023-08-08T04:07:13;5.00;;;2.95;;
11422;SDS011;5768;51.476;7.210;2023-08-08T04:12:17;7.50;;;3.67;;
11422;SDS011;5768;51.476;7.210;2023-08-08T04:17:19;7.85;;;3.72;;
11422;SDS011;5768;51.476;7.210;2023-08-08T04:22:22;6.88;;;3.58;;
11422;SDS011;5768;51.476;7.210;2023-08-08T04:27:25;3.75;;;2.92;;
11422;SDS011;5768;51.476;7.210;2023-08-08T04:32:28;4.43;;;3.03;;
11422;SDS011;5768;51.476;7.210;2023-08-08T04:37:30;6.10;;;3.50;;
11422;SDS011;5768;51.476;7.210;2023-08-08T04:42:34;6.22;;;3.13;;
11422;SDS011;5768;51.476;7.210;2023-08-08T04:47:36;8.35;;;3.88;;
11422;SDS011;5768;51.476;7.210;2023-08-08T04:52:39;6.15;;;3.75;;
11422;SDS011;5768;51.476;7.210;2023-08-08T04:57:51;9.07;;;4.15;;
11422;SDS011;5768;51.476;7.210;2023-08-08T05:02:54;5.97;;;3.80;;
11422;SDS011;5768;51.476;7.210;2023-08-08T05:07:56;5.97;;;4.13;;
11422;SDS011;5768;51.476;7.210;2023-08-08T05:13:00;7.68;;;5.22;;
11422;SDS011;5768;51.476;7.210;2023-08-08T05:18:02;9.93;;;4.75;;
11422;SDS011;5768;51.476;7.210;2023-08-08T05:23:05;10.27;;;5.97;;
11422;SDS011;5768;51.476;7.210;2023-08-08T05:28:09;7.10;;;5.55;;
11422;SDS011;5768;51.476;7.210;2023-08-08T05:33:11;6.10;;;4.30;;
11422;SDS011;5768;51.476;7.210;2023-08-08T05:38:13;10.45;;;5.60;;
11422;SDS011;5768;51.476;7.210;2023-08-08T05:43:17;10.30;;;5.57;;
11422;SDS011;5768;51.476;7.210;2023-08-08T05:48:21;7.93;;;6.32;;
11422;SDS011;5768;51.476;7.210;2023-08-08T05:53:23;9.02;;;5.80;;
11422;SDS011;5768;51.476;7.210;2023-08-08T05:58:27;7.38;;;5.88;;
11422;SDS011;5768;51.476;7.210;2023-08-08T06:03:32;11.07;;;7.45;;
11422;SDS011;5768;51.476;7.210;2023-08-08T06:08:35;12.95;;;8.70;;
11422;SDS011;5768;51.476;7.210;2023-08-08T06:13:38;12.95;;;8.25;;
11422;SDS011;5768;51.476;7.210;2023-08-08T06:18:40;15.15;;;8.55;;
11422;SDS011;5768;51.476;7.210;2023-08-08T06:23:46;10.38;;;8.15;;
11422;SDS011;5768;51.476;7.210;2023-08-08T06:28:50;12.45;;;8.52;;
11422;SDS011;5768;51.476;7.210;2023-08-08T06:33:53;12.07;;;8.43;;
11422;SDS011;5768;51.476;7.210;2023-08-08T06:38:55;12.30;;;7.45;;
11422;SDS011;5768;51.476;7.210;2023-08-08T06:43:58;10.75;;;8.52;;
11422;SDS011;5768;51.476;7.210;2023-08-08T06:49:01;12.05;;;7.80;;
11422;SDS011;5768;51.476;7.210;2023-08-08T06:54:04;11.20;;;8.15;;
11422;SDS011;5768;51.476;7.210;2023-08-08T06:59:09;14.30;;;9.10;;
11422;SDS011;5768;51.476;7.210;2023-08-08T07:04:11;11.15;;;8.38;;
11422;SDS011;5768;51.476;7.210;2023-08-08T07:09:14;11.80;;;9.05;;
11422;SDS011;5768;51.476;7.210;2023-08-08T07:14:18;14.88;;;10.75;;
11422;SDS011;5768;51.476;7.210;2023-08-08T07:19:20;12.88;;;7.85;;
11422;SDS011;5768;51.476;7.210;2023-08-08T07:24:22;11.85;;;9.30;;
11422;SDS011;5768;51.476;7.210;2023-08-08T07:29:30;14.60;;;11.48;;
11422;SDS011;5768;51.476;7.210;2023-08-08T07:34:32;12.82;;;10.45;;
11422;SDS011;5768;51.476;7.210;2023-08-08T07:39:34;15.25;;;12.15;;
11422;SDS011;5768;51.476;7.210;2023-08-08T07:44:38;15.75;;;10.00;;
11422;SDS011;5768;51.476;7.210;2023-08-08T07:49:40;10.88;;;7.53;;
11422;SDS011;5768;51.476;7.210;2023-08-08T07:54:42;9.95;;;7.63;;
11422;SDS011;5768;51.476;7.210;2023-08-08T07:59:46;11.30;;;7.20;;
11422;SDS011;5768;51.476;7.210;2023-08-08T08:04:48;9.60;;;6.25;;
11422;SDS011;5768;51.476;7.210;2023-08-08T08:09:50;11.15;;;6.10;;
11422;SDS011;5768;51.476;7.210;2023-08-08T08:14:54;8.30;;;5.32;;
11422;SDS011;5768;51.476;7.210;2023-08-08T08:19:56;7.93;;;5.28;;
11422;SDS011;5768;51.476;7.210;2023-08-08T08:24:58;7.07;;;5.13;;
11422;SDS011;5768;51.476;7.210;2023-08-08T08:30:02;6.00;;;3.72;;
11422;SDS011;5768;51.476;7.210;2023-08-08T08:35:07;9.02;;;4.55;;
11422;SDS011;5768;51.476;7.210;2023-08-08T08:40:12;4.45;;;3.15;;
11422;SDS011;5768;51.476;7.210;2023-08-08T08:45:17;4.03;;;2.80;;
11422;SDS011;5768;51.476;7.210;2023-08-08T08:50:22;8.38;;;4.00;;
11422;SDS011;5768;51.476;7.210;2023-08-08T08:55:28;6.07;;;3.10;;
11422;SDS011;5768;51.476;7.210;2023-08-08T09:00:32;3.03;;;2.38;;
11422;SDS011;5768;51.476;7.210;2023-08-08T09:05:36;6.03;;;2.97;;
11422;SDS011;5768;51.476;7.210;2023-08-08T09:10:40;4.68;;;2.83;;
11422;SDS011;5768;51.476;7.210;2023-08-08T09:15:46;5.15;;;2.67;;
11422;SDS011;5768;51.476;7.210;2023-08-08T09:20:50;8.68;;;3.30;;
11422;SDS011;5768;51.476;7.210;2023-08-08T09:25:52;7.45;;;3.05;;
11422;SDS011;5768;51.476;7.210;2023-08-08T09:30:56;5.05;;;2.53;;
11422;SDS011;5768;51.476;7.210;2023-08-08T09:35:59;4.50;;;2.58;;
11422;SDS011;5768;51.476;7.210;2023-08-08T09:41:01;4.53;;;2.58;;
11422;SDS011;5768;51.476;7.210;2023-08-08T09:46:05;3.30;;;2.13;;
11422;SDS011;5768;51.476;7.210;2023-08-08T09:51:09;7.18;;;2.40;;
11422;SDS011;5768;51.476;7.210;2023-08-08T09:56:12;4.60;;;2.50;;
11422;SDS011;5768;51.476;7.210;2023-08-08T10:01:17;6.32;;;2.10;;
11422;SDS011;5768;51.476;7.210;2023-08-08T10:06:21;4.00;;;2.35;;
11422;SDS011;5768;51.476;7.210;2023-08-08T10:11:23;4.15;;;2.50;;
11422;SDS011;5768;51.476;7.210;2023-08-08T10:16:31;5.78;;;2.65;;
11422;SDS011;5768;51.476;7.210;2023-08-08T10:21:35;5.57;;;2.20;;
11422;SDS011;5768;51.476;7.210;2023-08-08T10:26:51;7.03;;;2.80;;
11422;SDS011;5768;51.476;7.210;2023-08-08T10:31:59;7.03;;;2.40;;
11422;SDS011;5768;51.476;7.210;2023-08-08T10:37:04;3.08;;;2.05;;
11422;SDS011;5768;51.476;7.210;2023-08-08T10:42:10;3.58;;;2.13;;
11422;SDS011;5768;51.476;7.210;2023-08-08T10:47:22;3.50;;;2.15;;
11422;SDS011;5768;51.476;7.210;2023-08-08T10:52:25;3.63;;;2.20;;
11422;SDS011;5768;51.476;7.210;2023-08-08T10:57:28;4.55;;;2.28;;
11422;SDS011;5768;51.476;7.210;2023-08-08T11:02:33;3.70;;;2.00;;
11422;SDS011;5768;51.476;7.210;2023-08-08T11:07:36;3.35;;;1.90;;
11422;SDS011;5768;51.476;7.210;2023-08-08T11:12:39;3.05;;;2.30;;
11422;SDS011;5768;51.476;7.210;2023-08-08T11:17:42;4.40;;;2.50;;
11422;SDS011;5768;51.476;7.210;2023-08-08T11:22:50;3.50;;;1.77;;
11422;SDS011;5768;51.476;7.210;2023-08-08T11:27:54;4.88;;;2.03;;
11422;SDS011;5768;51.476;7.210;2023-08-08T11:32:59;4.22;;;2.28;;
11422;SDS011;5768;51.476;7.210;2023-08-08T11:38:02;6.07;;;2.40;;
11422;SDS011;5768;51.476;7.210;2023-08-08T11:43:06;3.90;;;2.20;;
11422;SDS011;5768;51.476;7.210;2023-08-08T11:48:10;5.10;;;2.20;;
11422;SDS011;5768;51.476;7.210;2023-08-08T11:53:12;5.43;;;2.30;;
11422;SDS011;5768;51.476;7.210;2023-08-08T11:58:14;4.05;;;2.20;;
11422;SDS011;5768;51.476;7.210;2023-08-08T12:03:19;6.10;;;2.60;;
11422;SDS011;5768;51.476;7.210;2023-08-08T12:08:22;2.75;;;1.90;;
11422;SDS011;5768;51.476;7.210;2023-08-08T12:13:26;2.60;;;2.08;;
11422;SDS011;5768;51.476;7.210;2023-08-08T12:18:30;2.22;;;1.67;;
11422;SDS011;5768;51.476;7.210;2023-08-08T12:23:33;4.63;;;2.42;;
11422;SDS011;5768;51.476;7.210;2023-08-08T12:28:37;2.60;;;1.50;;
11422;SDS011;5768;51.476;7.210;2023-08-08T12:33:41;3.88;;;2.08;;
11422;SDS011;5768;51.476;7.210;2023-08-08T12:38:43;3.50;;;1.90;;
11422;SDS011;5768;51.476;7.210;2023-08-08T12:43:46;4.10;;;2.00;;
11422;SDS011;5768;51.476;7.210;2023-08-08T12:48:52;4.22;;;2.17;;
11422;SDS011;5768;51.476;7.210;2023-08-08T12:53:54;4.82;;;2.30;;
11422;SDS011;5768;51.476;7.210;2023-08-08T12:58:57;5.63;;;2.20;;
11422;SDS011;5768;51.476;7.210;2023-08-08T13:04:00;8.85;;;2.28;;
11422;SDS011;5768;51.476;7.210;2023-08-08T13:09:04;3.15;;;1.90;;
11422;SDS011;5768;51.476;7.210;2023-08-08T13:14:06;3.30;;;1.83;;
11422;SDS011;5768;51.476;7.210;2023-08-08T13:19:10;4.50;;;2.10;;
11422;SDS011;5768;51.476;7.210;2023-08-08T13:24:13;3.90;;;2.33;;
11422;SDS011;5768;51.476;7.210;2023-08-08T13:29:15;3.53;;;2.33;;
11422;SDS011;5768;51.476;7.210;2023-08-08T13:34:19;3.53;;;2.28;;
11422;SDS011;5768;51.476;7.210;2023-08-08T13:39:21;3.47;;;2.40;;
11422;SDS011;5768;51.476;7.210;2023-08-08T13:44:24;4.38;;;2.15;;
11422;SDS011;5768;51.476;7.210;2023-08-08T13:49:27;2.78;;;1.80;;
11422;SDS011;5768;51.476;7.210;2023-08-08T13:54:30;2.75;;;1.77;;
11422;SDS011;5768;51.476;7.210;2023-08-08T13:59:32;5.10;;;1.80;;
11422;SDS011;5768;51.476;7.210;2023-08-08T14:04:36;3.42;;;2.10;;
11422;SDS011;5768;51.476;7.210;2023-08-08T14:09:39;6.25;;;2.30;;
11422;SDS011;5768;51.476;7.210;2023-08-08T14:14:45;2.15;;;1.83;;
11422;SDS011;5768;51.476;7.210;2023-08-08T14:19:48;4.55;;;2.00;;
11422;SDS011;5768;51.476;7.210;2023-08-08T14:24:51;3.95;;;2.00;;
11422;SDS011;5768;51.476;7.210;2023-08-08T14:29:53;4.35;;;1.95;;
11422;SDS011;5768;51.476;7.210;2023-08-08T14:34:59;2.33;;;1.70;;
11422;SDS011;5768;51.476;7.210;2023-08-08T14:40:03;4.82;;;2.00;;
11422;SDS011;5768;51.476;7.210;2023-08-08T14:45:10;3.22;;;1.90;;
11422;SDS011;5768;51.476;7.210;2023-08-08T14:50:13;4.55;;;1.77;;
11422;SDS011;5768;51.476;7.210;2023-08-08T14:55:16;2.92;;;1.63;;
11422;SDS011;5768;51.476;7.210;2023-08-08T15:00:18;2.50;;;1.60;;
11422;SDS011;5768;51.476;7.210;2023-08-08T15:05:22;2.15;;;1.50;;
11422;SDS011;5768;51.476;7.210;2023-08-08T15:10:24;1.65;;;1.23;;
11422;SDS011;5768;51.476;7.210;2023-08-08T15:15:26;2.53;;;1.67;;
11422;SDS011;5768;51.476;7.210;2023-08-08T15:20:31;2.83;;;1.60;;
11422;SDS011;5768;51.476;7.210;2023-08-08T15:25:33;1.65;;;1.48;;
11422;SDS011;5768;51.476;7.210;2023-08-08T15:30:36;2.05;;;1.35;;
11422;SDS011;5768;51.476;7.210;2023-08-08T15:35:40;3.03;;;1.50;;
11422;SDS011;5768;51.476;7.210;2023-08-08T15:40:44;2.10;;;1.45;;
11422;SDS011;5768;51.476;7.210;2023-08-08T15:45:46;2.70;;;1.50;;
11422;SDS011;5768;51.476;7.210;2023-08-08T15:50:50;2.58;;;1.40;;
11422;SDS011;5768;51.476;7.210;2023-08-08T15:55:56;1.23;;;1.00;;
11422;SDS011;5768;51.476;7.210;2023-08-08T16:00:58;0.93;;;0.93;;
11422;SDS011;5768;51.476;7.210;2023-08-08T16:06:02;4.55;;;1.00;;
11422;SDS011;5768;51.476;7.210;2023-08-08T16:11:04;2.35;;;1.00;;
11422;SDS011;5768;51.476;7.210;2023-08-08T16:16:10;1.50;;;0.93;;
11422;SDS011;5768;51.476;7.210;2023-08-08T16:21:13;1.90;;;1.02;;
11422;SDS011;5768;51.476;7.210;2023-08-08T16:26:16;1.73;;;1.13;;
11422;SDS011;5768;51.476;7.210;2023-08-08T16:31:18;1.58;;;1.20;;
11422;SDS011;5768;51.476;7.210;2023-08-08T16:36:22;1.50;;;1.40;;
11422;SDS011;5768;51.476;7.210;2023-08-08T16:41:26;2.53;;;1.40;;
11422;SDS011;5768;51.476;7.210;2023-08-08T16:46:29;4.05;;;1.38;;
11422;SDS011;5768;51.476;7.210;2023-08-08T16:51:33;1.38;;;1.00;;
11422;SDS011;5768;51.476;7.210;2023-08-08T16:56:36;1.33;;;1.15;;
11422;SDS011;5768;51.476;7.210;2023-08-08T17:01:39;2.63;;;1.30;;
11422;SDS011;5768;51.476;7.210;2023-08-08T17:06:44;2.92;;;1.20;;
11422;SDS011;5768;51.476;7.210;2023-08-08T17:11:47;1.75;;;1.10;;
11422;SDS011;5768;51.476;7.210;2023-08-08T17:16:50;2.70;;;1.38;;
11422;SDS011;5768;51.476;7.210;2023-08-08T17:21:53;4.03;;;1.20;;
11422;SDS011;5768;51.476;7.210;2023-08-08T17:26:57;2.40;;;1.13;;
11422;SDS011;5768;51.476;7.210;2023-08-08T17:32:00;3.17;;;1.48;;
11422;SDS011;5768;51.476;7.210;2023-08-08T17:37:04;3.60;;;1.50;;
11422;SDS011;5768;51.476;7.210;2023-08-08T17:42:08;2.70;;;1.40;;
11422;SDS011;5768;51.476;7.210;2023-08-08T17:47:13;1.83;;;1.40;;
11422;SDS011;5768;51.476;7.210;2023-08-08T17:52:18;2.90;;;1.38;;
11422;SDS011;5768;51.476;7.210;2023-08-08T17:57:24;2.55;;;1.60;;
11422;SDS011;5768;51.476;7.210;2023-08-08T18:02:26;1.98;;;1.60;;
11422;SDS011;5768;51.476;7.210;2023-08-08T18:07:30;3.05;;;1.63;;
11422;SDS011;5768;51.476;7.210;2023-08-08T18:12:32;2.95;;;1.65;;
11422;SDS011;5768;51.476;7.210;2023-08-08T18:17:34;1.92;;;1.70;;
11422;SDS011;5768;51.476;7.210;2023-08-08T18:22:38;3.67;;;2.08;;
11422;SDS011;5768;51.476;7.210;2023-08-08T18:27:41;3.20;;;1.98;;
11422;SDS011;5768;51.476;7.210;2023-08-08T18:32:43;2.95;;;1.90;;
11422;SDS011;5768;51.476;7.210;2023-08-08T18:37:49;3.55;;;2.35;;
11422;SDS011;5768;51.476;7.210;2023-08-08T18:42:52;2.60;;;2.40;;
11422;SDS011;5768;51.476;7.210;2023-08-08T18:47:55;2.60;;;2.40;;
11422;SDS011;5768;51.476;7.210;2023-08-08T18:52:59;2.63;;;2.33;;
11422;SDS011;5768;51.476;7.210;2023-08-08T18:58:01;4.45;;;2.40;;
11422;SDS011;5768;51.476;7.210;2023-08-08T19:03:04;3.67;;;2.10;;
11422;SDS011;5768;51.476;7.210;2023-08-08T19:08:08;2.97;;;2.40;;
11422;SDS011;5768;51.476;7.210;2023-08-08T19:13:11;2.50;;;2.30;;
11422;SDS011;5768;51.476;7.210;2023-08-08T19:18:14;3.78;;;2.78;;
11422;SDS011;5768;51.476;7.210;2023-08-08T19:23:18;2.95;;;2.47;;
11422;SDS011;5768;51.476;7.210;2023-08-08T19:28:40;2.53;;;2.33;;
11422;SDS011;5768;51.476;7.210;2023-08-08T19:33:51;4.38;;;3.38;;
11422;SDS011;5768;51.476;7.210;2023-08-08T19:38:59;4.32;;;2.65;;
11422;SDS011;5768;51.476;7.210;2023-08-08T19:44:05;3.22;;;2.90;;
11422;SDS011;5768;51.476;7.210;2023-08-08T19:49:07;4.78;;;3.33;;
11422;SDS011;5768;51.476;7.210;2023-08-08T19:54:12;4.32;;;3.25;;
11422;SDS011;5768;51.476;7.210;2023-08-08T19:59:24;3.65;;;3.10;;
11422;SDS011;5768;51.476;7.210;2023-08-08T20:04:26;3.35;;;2.85;;
11422;SDS011;5768;51.476;7.210;2023-08-08T20:09:30;4.82;;;3.22;;
11422;SDS011;5768;51.476;7.210;2023-08-08T20:14:34;3.45;;;3.10;;
11422;SDS011;5768;51.476;7.210;2023-08-08T20:19:36;3.72;;;3.30;;
11422;SDS011;5768;51.476;7.210;2023-08-08T20:24:45;3.92;;;3.53;;
11422;SDS011;5768;51.476;7.210;2023-08-08T20:29:48;4.80;;;4.07;;
11422;SDS011;5768;51.476;7.210;2023-08-08T20:34:50;6.10;;;4.55;;
11422;SDS011;5768;51.476;7.210;2023-08-08T20:39:54;5.10;;;4.45;;
11422;SDS011;5768;51.476;7.210;2023-08-08T20:44:57;5.55;;;4.75;;
11422;SDS011;5768;51.476;7.210;2023-08-08T20:49:59;5.50;;;5.00;;
11422;SDS011;5768;51.476;7.210;2023-08-08T20:55:07;5.03;;;4.53;;
11422;SDS011;5768;51.476;7.210;2023-08-08T21:00:10;6.28;;;5.60;;
11422;SDS011;5768;51.476;7.210;2023-08-08T21:05:15;6.40;;;5.80;;
11422;SDS011;5768;51.476;7.210;2023-08-08T21:10:19;6.80;;;6.10;;
11422;SDS011;5768;51.476;7.210;2023-08-08T21:15:42;6.57;;;5.97;;
11422;SDS011;5768;51.476;7.210;2023-08-08T21:20:47;7.72;;;7.13;;
11422;SDS011;5768;51.476;7.210;2023-08-08T21:25:51;9.10;;;8.30;;
11422;SDS011;5768;51.476;7.210;2023-08-08T21:30:53;8.25;;;7.45;;
11422;SDS011;5768;51.476;7.210;2023-08-08T21:35:58;5.90;;;5.30;;
11422;SDS011;5768;51.476;7.210;2023-08-08T21:41:01;5.63;;;5.03;;
11422;SDS011;5768;51.476;7.210;2023-08-08T21:46:04;3.88;;;3.50;;
11422;SDS011;5768;51.476;7.210;2023-08-08T21:51:06;5.20;;;4.55;;
11422;SDS011;5768;51.476;7.210;2023-08-08T21:56:11;4.40;;;4.00;;
11422;SDS011;5768;51.476;7.210;2023-08-08T22:01:14;3.58;;;3.25;;
11422;SDS011;5768;51.476;7.210;2023-08-08T22:06:16;3.88;;;3.55;;
11422;SDS011;5768;51.476;7.210;2023-08-08T22:11:20;3.75;;;3.17;;
11422;SDS011;5768;51.476;7.210;2023-08-08T22:16:22;3.47;;;3.10;;
11422;SDS011;5768;51.476;7.210;2023-08-08T22:21:25;3.22;;;3.03;;
11422;SDS011;5768;51.476;7.210;2023-08-08T22:26:29;3.22;;;2.92;;
11422;SDS011;5768;51.476;7.210;2023-08-08T22:31:31;3.08;;;1.98;;
11422;SDS011;5768;51.476;7.210;2023-08-08T22:36:33;2.85;;;2.40;;
11422;SDS011;5768;51.476;7.210;2023-08-08T22:41:37;3.15;;;2.85;;
11422;SDS011;5768;51.476;7.210;2023-08-08T22:46:40;4.03;;;2.97;;
11422;SDS011;5768;51.476;7.210;2023-08-08T22:51:42;3.75;;;2.80;;
11422;SDS011;5768;51.476;7.210;2023-08-08T22:56:46;3.20;;;2.90;;
11422;SDS011;5768;51.476;7.210;2023-08-08T23:01:48;3.67;;;3.00;;
11422;SDS011;5768;51.476;7.210;2023-08-08T23:06:50;3.17;;;2.90;;
11422;SDS011;5768;51.476;7.210;2023-08-08T23:11:54;2.58;;;2.30;;
11422;SDS011;5768;51.476;7.210;2023-08-08T23:16:57;2.35;;;2.00;;
11422;SDS011;5768;51.476;7.210;2023-08-08T23:21:59;2.20;;;2.00;;
11422;SDS011;5768;51.476;7.210;2023-08-08T23:27:03;2.10;;;1.73;;
11422;SDS011;5768;51.476;7.210;2023-08-08T23:32:06;1.75;;;1.23;;
11422;SDS011;5768;51.476;7.210;2023-08-08T23:37:09;1.98;;;1.70;;
11422;SDS011;5768;51.476;7.210;2023-08-08T23:42:12;2.03;;;1.77;;
11422;SDS011;5768;51.476;7.210;2023-08-08T23:47:15;2.17;;;1.80;;
11422;SDS011;5768;51.476;7.210;2023-08-08T23:52:18;2.58;;;1.73;;
11422;SDS011;5768;51.476;7.210;2023-08-08T23:57:22;2.00;;;1.90;;
